Lyn May, Ohio
Current Conditions -  °F | °C
As of 4:45 PM on Friday 19 Dec 2014 (Local Time) from KCGF Reporting Station
Overcast Overcast  
Wind Chill: 23°   Ceiling: 2600
Heat Index: 32°   Visibility: 20mi
Dew Point: 23°   Wind: 12mph
Humidity: 69%   Direction: 300°WNW
Pressure: 30.26"   Gusts: NA
Location:  41.5003°N, 81.466°W
Report Text: KCGF 192145Z 30010KT 20SM OVC026 00/M05 A3026
Loading
Personal Weather Stations






























Interactive Weather Map New forecast layout! Learn more

10-Day Weather Forecast

Advertisements
Track Severe Weather on mobile